• Join FlightAware (Why Join?)
  • Login
  • US Flag 
07:11AM EST


 

Airport Tracker/Info


-or-


 

Live Flight TrackerFlight Track Log ✈ GAO2721 ✈ 27-Mar-2014 ✈ EFTU / TKU - ESSA / ARN

Flight Track Log - Related Links

Times and Time Zones

All times are in EDT time to prevent confusion due to time zone crossing. See the GAO2721 flight status page for this flight to view local times or setup timezone preferences in your user account.

Time Position Orientation Groundspeed Altitude Reporting Facility
EDT Latitude Longitude Course Direction KTS MPH feet Rate Location/Type
03:24AM 60.4039 21.6512 250° West  Level Estimated
03:25AM 60.3760 21.4989 250° West  Level Estimated
03:26AM 60.3478 21.3469 250° West  Level Estimated
03:27AM 60.3195 21.1952 249° West  Level Estimated
03:28AM 60.2910 21.0437 249° West  Level Estimated
03:29AM 60.2623 20.8925 249° West  Level Estimated
03:30AM 60.2334 20.7416 249° West  Level Estimated
03:31AM 60.2044 20.5909 249° West  Level Estimated
03:32AM 60.1752 20.4405 249° West  Level Estimated
03:33AM 60.1459 20.2904 249° West  Level Estimated
03:34AM 60.1163 20.1405 248° West  Level Estimated
03:35AM 60.0867 19.9909 248° West  Level Estimated
03:36AM 60.0568 19.8416 248° West  Level Estimated
03:37AM 60.0267 19.6926 248° West  Level Estimated
03:38AM 59.9965 19.5438 248° West  Level Estimated
03:39AM 59.9662 19.3953 248° West  Level Estimated
03:40AM 59.9356 19.2470 248° West  Level Estimated
03:41AM 59.9049 19.0991 248° West  Level Estimated
03:42AM 59.8741 18.9514 247° West  Level Estimated
03:43AM 59.8430 18.8039 247° West  Level Estimated
03:44AM 59.8118 18.6568 247° West  Level Estimated
03:45AM 59.7805 18.5099 247° West  Level Estimated
03:46AM 59.7490 18.3633 247° West  Level Estimated
03:47AM 59.7173 18.2170 247° West  Level Estimated
03:48AM 59.6854 18.0710 247° West  Level Estimated
03:49AM 59.6534 17.9252 247° West  Level Estimated
03:50AM 59.6519 17.9186 246° West  Level Estimated
03:51AM 59.6519 17.9186 North  Level Estimated
03:52AM 59.6519 17.9186 North  Level Estimated
03:53AM 59.6519 17.9186 North  Level Estimated
03:54AM 59.6519 17.9186 North  Level Estimated
03:55AM 59.6519 17.9186 North  Level Estimated
03:56AM 59.6519 17.9186 North  Level Estimated
03:57AM 59.6519 17.9186 North  Level Estimated
03:58AM 59.6519 17.9186 North  Level Estimated
03:59AM 59.6519 17.9186 North  Level Estimated
04:00AM 59.6519 17.9186 North  Level Estimated
04:01AM 59.6519 17.9186 North  Level Estimated
04:02AM 59.6519 17.9186 North  Level Estimated
04:03AM 59.6519 17.9186 North  Level Estimated